Gladstone, Canada
Current Conditions -  °F | °C
As of 3:00 PM on Wednesday 17 Dec 2014 (Local Time) from CYBR Reporting Station
Few Clouds Few Clouds  
Wind Chill:   Ceiling: Unl
Heat Index: 10°   Visibility: 15mi
Dew Point:   Wind: 5mph
Humidity: 85%   Direction: 100°E
Pressure: 30.26"   Gusts: NA
Location:  50.23°N, 98.95°W
Report Text: CYBR 172100Z 10004KT 15SM FEW007 FEW240 M12/M14 A3026 RMK ST1CI2 ST TR SLP289
Loading
Personal Weather Stations






























Interactive Weather Map New forecast layout! Learn more

10-Day Weather Forecast

Advertisements
Track Severe Weather on mobile